createdAt,value
2022-11-05T00:00:03.607Z,973.65
2022-11-05T00:01:03.759Z,973.54
2022-11-05T00:02:03.819Z,973.52
2022-11-05T00:03:03.832Z,973.74
2022-11-05T00:04:04.113Z,973.60
2022-11-05T00:05:03.865Z,973.52
2022-11-05T00:06:03.846Z,973.65
2022-11-05T00:07:02.922Z,973.57
2022-11-05T00:08:02.990Z,973.82
2022-11-05T00:09:03.000Z,973.74
2022-11-05T00:10:03.202Z,973.68
2022-11-05T00:11:03.040Z,973.68
2022-11-05T00:12:03.091Z,973.80
2022-11-05T00:13:02.998Z,973.80
2022-11-05T00:14:02.994Z,973.80
2022-11-05T00:15:03.073Z,973.82
2022-11-05T00:16:03.191Z,973.85
2022-11-05T00:17:03.217Z,973.77
2022-11-05T00:18:03.193Z,973.77
2022-11-05T00:19:03.311Z,973.88
2022-11-05T00:20:03.201Z,974.08
2022-11-05T00:21:03.286Z,974.02
2022-11-05T00:22:03.277Z,973.94
2022-11-05T00:23:03.272Z,974.05
2022-11-05T00:24:03.723Z,973.91
2022-11-05T00:25:03.834Z,973.94
2022-11-05T00:26:03.193Z,973.91
2022-11-05T00:27:03.249Z,973.88
2022-11-05T00:28:03.267Z,973.80
2022-11-05T00:29:03.257Z,974.02
2022-11-05T00:30:03.283Z,974.11
2022-11-05T00:31:03.645Z,974.05
2022-11-05T00:32:03.295Z,973.97
2022-11-05T00:33:03.371Z,974.02
2022-11-05T00:34:03.478Z,974.08
2022-11-05T00:35:03.481Z,974.02
2022-11-05T00:36:03.524Z,974.05
2022-11-05T00:37:03.628Z,974.17
2022-11-05T00:38:03.748Z,974.05
2022-11-05T00:39:03.719Z,974.05
2022-11-05T00:40:03.725Z,974.14
2022-11-05T00:41:04.093Z,974.00
2022-11-05T00:42:02.981Z,974.22
2022-11-05T00:43:03.025Z,974.22
2022-11-05T00:44:03.033Z,974.05
2022-11-05T00:45:03.167Z,974.11
2022-11-05T00:46:02.997Z,974.08
2022-11-05T00:47:03.179Z,974.08
2022-11-05T00:48:03.238Z,974.14
2022-11-05T00:49:03.199Z,974.11
2022-11-05T00:50:03.233Z,974.19
2022-11-05T00:51:03.164Z,974.17
2022-11-05T00:52:03.175Z,974.14
2022-11-05T00:53:03.325Z,974.05
2022-11-05T00:54:03.620Z,974.14
2022-11-05T00:55:03.675Z,974.19
2022-11-05T00:56:03.594Z,974.11
2022-11-05T00:57:05.199Z,974.11
2022-11-05T00:58:03.670Z,974.25
2022-11-05T00:59:03.709Z,974.17
2022-11-05T01:00:03.794Z,974.31
2022-11-05T01:01:03.716Z,974.28
2022-11-05T01:02:04.199Z,974.16
2022-11-05T01:03:03.929Z,974.16
2022-11-05T01:04:03.812Z,974.22
2022-11-05T01:05:02.960Z,974.13
2022-11-05T01:06:02.911Z,974.16
2022-11-05T01:07:03.105Z,974.30
2022-11-05T01:08:03.092Z,974.25
2022-11-05T01:09:03.150Z,974.16
2022-11-05T01:10:03.438Z,974.19
2022-11-05T01:11:03.387Z,974.24
2022-11-05T01:12:03.464Z,974.19
2022-11-05T01:13:04.936Z,974.30
2022-11-05T01:14:03.718Z,974.27
2022-11-05T01:15:03.698Z,974.19
2022-11-05T01:16:04.107Z,974.24
2022-11-05T01:17:03.819Z,974.27
2022-11-05T01:18:03.877Z,974.38
2022-11-05T01:19:03.863Z,974.30
2022-11-05T01:20:03.888Z,974.18
2022-11-05T01:21:03.875Z,974.30
2022-11-05T01:22:03.944Z,974.24
2022-11-05T01:23:13.118Z,974.21
2022-11-05T01:24:03.884Z,974.18
2022-11-05T01:25:02.975Z,974.30
2022-11-05T01:26:03.134Z,974.24
2022-11-05T01:27:03.204Z,974.30
2022-11-05T01:28:03.350Z,974.24
2022-11-05T01:29:03.622Z,974.32
2022-11-05T01:30:03.624Z,974.41
2022-11-05T01:31:03.622Z,974.38
2022-11-05T01:32:03.614Z,974.41
2022-11-05T01:33:03.601Z,974.41
2022-11-05T01:34:04.177Z,974.46
2022-11-05T01:35:03.637Z,974.49
2022-11-05T01:36:03.634Z,974.35
2022-11-05T01:37:03.666Z,974.55
2022-11-05T01:38:03.664Z,974.43
2022-11-05T01:39:03.669Z,974.46
2022-11-05T01:40:03.993Z,974.38
2022-11-05T01:41:03.559Z,974.52
2022-11-05T01:42:03.641Z,974.43
2022-11-05T01:43:03.657Z,974.57
2022-11-05T01:44:03.595Z,974.43
2022-11-05T01:45:03.763Z,974.52
2022-11-05T01:46:05.070Z,974.55
2022-11-05T01:47:03.161Z,974.49
2022-11-05T01:48:03.235Z,974.52
2022-11-05T01:49:03.895Z,974.57
2022-11-05T01:50:03.350Z,974.66
2022-11-05T01:51:03.358Z,974.60
2022-11-05T01:52:03.437Z,974.60
2022-11-05T01:53:03.473Z,974.49
2022-11-05T01:54:03.536Z,974.69
2022-11-05T01:55:03.758Z,974.49
2022-11-05T01:56:03.600Z,974.63
2022-11-05T01:57:03.585Z,974.66
2022-11-05T01:58:03.682Z,974.69
2022-11-05T01:59:03.680Z,974.66
2022-11-05T02:00:03.688Z,974.74
2022-11-05T02:01:03.861Z,974.72
2022-11-05T02:02:03.209Z,974.63
2022-11-05T02:03:03.197Z,974.66
2022-11-05T02:04:03.154Z,974.69
2022-11-05T02:05:03.047Z,974.63
2022-11-05T02:06:03.132Z,974.77
2022-11-05T02:07:03.138Z,974.63
2022-11-05T02:08:03.179Z,974.63
2022-11-05T02:09:03.331Z,974.78
2022-11-05T02:10:03.291Z,974.72
2022-11-05T02:11:03.303Z,974.80
2022-11-05T02:12:03.207Z,974.86
2022-11-05T02:13:03.283Z,974.86
2022-11-05T02:14:03.454Z,974.86
2022-11-05T02:15:03.587Z,974.83
2022-11-05T02:16:03.518Z,974.86
2022-11-05T02:17:03.537Z,974.86
2022-11-05T02:18:03.788Z,974.78
2022-11-05T02:19:03.709Z,974.95
2022-11-05T02:20:03.760Z,974.81
2022-11-05T02:21:03.910Z,974.81
2022-11-05T02:22:03.838Z,974.75
2022-11-05T02:23:03.861Z,974.75
2022-11-05T02:24:03.779Z,974.84
2022-11-05T02:25:03.880Z,974.92
2022-11-05T02:26:03.845Z,974.87
2022-11-05T02:27:02.939Z,974.81
2022-11-05T02:28:03.021Z,974.87
2022-11-05T02:29:03.042Z,974.90
2022-11-05T02:30:03.034Z,974.93
2022-11-05T02:31:03.027Z,974.93
2022-11-05T02:32:03.060Z,975.00
2022-11-05T02:33:03.094Z,975.03
2022-11-05T02:34:03.160Z,975.03
2022-11-05T02:35:03.177Z,975.01
2022-11-05T02:36:03.081Z,975.03
2022-11-05T02:37:03.222Z,975.12
2022-11-05T02:38:03.248Z,975.01
2022-11-05T02:39:03.425Z,974.95
2022-11-05T02:40:03.719Z,974.95
2022-11-05T02:41:03.405Z,974.93
2022-11-05T02:42:05.676Z,974.98
2022-11-05T02:43:03.417Z,974.94
2022-11-05T02:44:03.499Z,975.01
2022-11-05T02:45:03.532Z,975.04
2022-11-05T02:46:03.698Z,974.91
2022-11-05T02:47:03.663Z,975.01
2022-11-05T02:48:03.575Z,975.10
2022-11-05T02:49:03.766Z,974.99
2022-11-05T02:50:03.880Z,975.02
2022-11-05T02:51:02.960Z,975.10
2022-11-05T02:52:02.934Z,975.02
2022-11-05T02:53:03.894Z,975.02
2022-11-05T02:54:02.943Z,975.16
2022-11-05T02:55:03.089Z,974.89
2022-11-05T02:56:03.927Z,974.92
2022-11-05T02:57:03.889Z,974.95
2022-11-05T02:58:02.951Z,975.11
2022-11-05T02:59:03.047Z,975.11
2022-11-05T03:00:02.994Z,975.22
2022-11-05T03:01:02.958Z,975.23
2022-11-05T03:02:03.238Z,975.23
2022-11-05T03:03:03.252Z,975.23
2022-11-05T03:04:03.047Z,975.20
2022-11-05T03:05:03.163Z,975.17
2022-11-05T03:06:02.927Z,975.23
2022-11-05T03:07:03.898Z,975.29
2022-11-05T03:08:03.000Z,975.23
2022-11-05T03:09:02.950Z,975.34
2022-11-05T03:10:02.918Z,975.24
2022-11-05T03:11:03.984Z,975.21
2022-11-05T03:12:02.995Z,975.37
2022-11-05T03:13:02.908Z,975.34
2022-11-05T03:14:02.920Z,975.37
2022-11-05T03:15:02.953Z,975.24
2022-11-05T03:16:02.952Z,975.37
2022-11-05T03:17:03.045Z,975.35
2022-11-05T03:18:03.047Z,975.27
2022-11-05T03:19:03.092Z,975.43
2022-11-05T03:20:03.147Z,975.38
2022-11-05T03:21:03.188Z,975.46
2022-11-05T03:22:03.148Z,975.46
2022-11-05T03:23:03.212Z,975.49
2022-11-05T03:24:03.331Z,975.49
2022-11-05T03:25:03.378Z,975.41
2022-11-05T03:26:03.401Z,975.41
2022-11-05T03:27:03.421Z,975.46
2022-11-05T03:28:03.546Z,975.46
2022-11-05T03:29:03.576Z,975.49
2022-11-05T03:30:03.546Z,975.47
2022-11-05T03:31:03.670Z,975.38
2022-11-05T03:32:03.687Z,975.50
2022-11-05T03:33:03.660Z,975.44
2022-11-05T03:34:03.613Z,975.52
2022-11-05T03:35:03.617Z,975.64
2022-11-05T03:36:03.593Z,975.50
2022-11-05T03:37:03.612Z,975.55
2022-11-05T03:38:03.533Z,975.58
2022-11-05T03:39:03.647Z,975.64
2022-11-05T03:40:03.709Z,975.67
2022-11-05T03:41:03.621Z,975.56
2022-11-05T03:42:03.697Z,975.56
2022-11-05T03:43:03.667Z,975.56
2022-11-05T03:44:03.682Z,975.56
2022-11-05T03:45:03.726Z,975.50
2022-11-05T03:46:03.853Z,975.61
2022-11-05T03:47:03.854Z,975.59
2022-11-05T03:48:02.883Z,975.64
2022-11-05T03:49:03.140Z,975.73
2022-11-05T03:50:03.007Z,975.79
2022-11-05T03:51:02.914Z,975.73
2022-11-05T03:52:02.998Z,975.79
2022-11-05T03:53:03.134Z,975.84
2022-11-05T03:54:03.079Z,975.73
2022-11-05T03:55:03.119Z,975.70
2022-11-05T03:56:03.094Z,975.93
2022-11-05T03:57:03.108Z,975.87
2022-11-05T03:58:03.166Z,975.88
2022-11-05T03:59:03.185Z,975.82
2022-11-05T04:00:03.295Z,975.88
2022-11-05T04:01:03.408Z,975.90
2022-11-05T04:02:03.715Z,975.85
2022-11-05T04:03:03.748Z,975.93
2022-11-05T04:04:03.561Z,975.88
2022-11-05T04:05:03.660Z,975.96
2022-11-05T04:06:03.653Z,975.96
2022-11-05T04:07:03.703Z,976.05
2022-11-05T04:08:03.709Z,975.91
2022-11-05T04:09:03.798Z,976.02
2022-11-05T04:10:03.727Z,975.88
2022-11-05T04:11:03.785Z,975.80
2022-11-05T04:12:03.786Z,975.91
2022-11-05T04:13:03.886Z,975.97
2022-11-05T04:14:03.774Z,976.00
2022-11-05T04:15:03.823Z,975.86
2022-11-05T04:16:03.841Z,975.86
2022-11-05T04:17:03.875Z,975.89
2022-11-05T04:18:03.056Z,976.06
2022-11-05T04:19:02.994Z,975.97
2022-11-05T04:20:03.020Z,975.94
2022-11-05T04:21:02.962Z,976.09
2022-11-05T04:22:02.968Z,976.09
2022-11-05T04:23:03.154Z,975.97
2022-11-05T04:24:03.182Z,976.03
2022-11-05T04:25:03.080Z,976.06
2022-11-05T04:26:03.035Z,976.14
2022-11-05T04:27:03.113Z,976.06
2022-11-05T04:28:03.024Z,976.12
2022-11-05T04:29:08.202Z,975.98
2022-11-05T04:30:03.079Z,976.06
2022-11-05T04:31:03.159Z,975.98
2022-11-05T04:32:03.214Z,975.92
2022-11-05T04:33:03.310Z,976.12
2022-11-05T04:34:03.251Z,976.09
2022-11-05T04:35:03.358Z,976.03
2022-11-05T04:36:03.519Z,975.97
2022-11-05T04:37:03.580Z,976.11
2022-11-05T04:38:03.613Z,976.06
2022-11-05T04:39:03.664Z,976.08
2022-11-05T04:40:03.706Z,976.08
2022-11-05T04:41:03.610Z,976.08
2022-11-05T04:42:03.797Z,975.89
2022-11-05T04:43:03.761Z,976.05
2022-11-05T04:44:03.788Z,976.00
2022-11-05T04:45:03.733Z,976.00
2022-11-05T04:46:03.824Z,975.97
2022-11-05T04:47:02.936Z,976.00
2022-11-05T04:48:03.070Z,976.03
2022-11-05T04:49:02.984Z,976.03
2022-11-05T04:50:02.961Z,975.97
2022-11-05T04:51:03.057Z,976.08
2022-11-05T04:52:02.988Z,976.05
2022-11-05T04:53:03.096Z,975.97
2022-11-05T04:54:03.185Z,975.94
2022-11-05T04:55:03.251Z,976.05
2022-11-05T04:56:03.206Z,976.00
2022-11-05T04:57:03.124Z,976.00
2022-11-05T04:58:03.183Z,976.05
2022-11-05T04:59:03.324Z,976.03
2022-11-05T05:00:03.323Z,975.97
2022-11-05T05:01:03.394Z,976.05
2022-11-05T05:02:03.590Z,976.03
2022-11-05T05:03:03.553Z,975.97
2022-11-05T05:04:03.585Z,976.03
2022-11-05T05:05:03.523Z,976.06
2022-11-05T05:06:04.378Z,976.06
2022-11-05T05:07:03.725Z,976.14
2022-11-05T05:08:03.785Z,976.03
2022-11-05T05:09:03.755Z,976.17
2022-11-05T05:10:03.783Z,976.17
2022-11-05T05:11:03.831Z,976.09
2022-11-05T05:12:03.841Z,976.03
2022-11-05T05:13:04.264Z,976.03
2022-11-05T05:14:02.948Z,976.20
2022-11-05T05:15:03.064Z,976.12
2022-11-05T05:16:03.096Z,976.17
2022-11-05T05:17:03.268Z,976.20
2022-11-05T05:18:03.231Z,976.26
2022-11-05T05:19:03.228Z,976.20
2022-11-05T05:20:03.244Z,976.17
2022-11-05T05:21:03.223Z,976.23
2022-11-05T05:22:03.320Z,976.20
2022-11-05T05:23:03.409Z,976.20
2022-11-05T05:24:03.391Z,976.26
2022-11-05T05:25:03.800Z,976.26
2022-11-05T05:26:03.789Z,976.18
2022-11-05T05:27:03.792Z,976.32
2022-11-05T05:28:02.935Z,976.26
2022-11-05T05:29:03.010Z,976.23
2022-11-05T05:30:03.056Z,976.32
2022-11-05T05:31:02.969Z,976.32
2022-11-05T05:32:03.093Z,976.35
2022-11-05T05:33:03.039Z,976.35
2022-11-05T05:34:03.030Z,976.35
2022-11-05T05:35:03.051Z,976.46
2022-11-05T05:36:11.431Z,976.40
2022-11-05T05:37:02.993Z,976.52
2022-11-05T05:38:02.970Z,976.43
2022-11-05T05:39:03.026Z,976.38
2022-11-05T05:40:03.005Z,976.52
2022-11-05T05:41:03.176Z,976.60
2022-11-05T05:42:03.414Z,976.54
2022-11-05T05:43:03.500Z,976.43
2022-11-05T05:44:03.575Z,976.43
2022-11-05T05:45:03.576Z,976.43
2022-11-05T05:46:03.588Z,976.35
2022-11-05T05:47:03.488Z,976.43
2022-11-05T05:48:03.573Z,976.40
2022-11-05T05:49:12.291Z,976.46
2022-11-05T05:50:03.554Z,976.40
2022-11-05T05:51:03.623Z,976.37
2022-11-05T05:52:04.190Z,976.49
2022-11-05T05:53:03.613Z,976.57
2022-11-05T05:54:03.661Z,976.60
2022-11-05T05:55:03.693Z,976.54
2022-11-05T05:56:03.733Z,976.57
2022-11-05T05:57:04.105Z,976.71
2022-11-05T05:58:04.045Z,976.74
2022-11-05T05:59:03.645Z,976.65
2022-11-05T06:00:03.784Z,976.71
2022-11-05T06:01:03.725Z,976.65
2022-11-05T06:02:04.188Z,976.65
2022-11-05T06:03:03.991Z,976.76
2022-11-05T06:04:03.030Z,976.71
2022-11-05T06:05:03.078Z,976.60
2022-11-05T06:06:03.091Z,976.63
2022-11-05T06:07:03.217Z,976.65
2022-11-05T06:08:03.289Z,976.63
2022-11-05T06:09:03.227Z,976.79
2022-11-05T06:10:03.218Z,976.74
2022-11-05T06:11:03.368Z,976.84
2022-11-05T06:12:03.227Z,976.79
2022-11-05T06:13:03.342Z,976.68
2022-11-05T06:14:03.428Z,976.90
2022-11-05T06:15:03.346Z,976.79
2022-11-05T06:16:03.666Z,976.85
2022-11-05T06:17:03.560Z,976.71
2022-11-05T06:18:03.599Z,976.84
2022-11-05T06:19:03.617Z,976.93
2022-11-05T06:20:03.667Z,976.93
2022-11-05T06:21:03.577Z,976.93
2022-11-05T06:22:03.695Z,976.90
2022-11-05T06:23:03.898Z,976.99
2022-11-05T06:24:03.942Z,976.96
2022-11-05T06:25:02.935Z,976.93
2022-11-05T06:26:02.944Z,976.99
2022-11-05T06:27:02.960Z,977.07
2022-11-05T06:28:02.935Z,977.07
2022-11-05T06:29:02.942Z,977.16
2022-11-05T06:30:02.960Z,977.10
2022-11-05T06:31:03.098Z,977.30
2022-11-05T06:32:03.085Z,977.13
2022-11-05T06:33:03.088Z,977.10
2022-11-05T06:34:03.143Z,977.21
2022-11-05T06:35:03.076Z,977.32
2022-11-05T06:36:02.965Z,977.32
2022-11-05T06:37:02.965Z,977.32
2022-11-05T06:38:03.054Z,977.46
2022-11-05T06:39:03.075Z,977.44
2022-11-05T06:40:03.010Z,977.44
2022-11-05T06:41:10.424Z,977.32
2022-11-05T06:42:19.716Z,977.35
2022-11-05T06:43:03.091Z,977.32
2022-11-05T06:44:03.144Z,977.43
2022-11-05T06:45:03.077Z,977.49
2022-11-05T06:46:03.229Z,977.52
2022-11-05T06:47:03.320Z,977.38
2022-11-05T06:48:03.264Z,977.38
2022-11-05T06:49:03.276Z,977.49
2022-11-05T06:50:03.318Z,977.37
2022-11-05T06:51:03.289Z,977.46
2022-11-05T06:52:03.270Z,977.51
2022-11-05T06:53:03.263Z,977.43
2022-11-05T06:54:03.767Z,977.60
2022-11-05T06:55:03.327Z,977.60
2022-11-05T06:56:03.349Z,977.51
2022-11-05T06:57:03.394Z,977.45
2022-11-05T06:58:03.342Z,977.51
2022-11-05T06:59:03.351Z,977.45
2022-11-05T07:00:08.377Z,977.51
2022-11-05T07:01:03.579Z,977.51
2022-11-05T07:02:03.557Z,977.62
2022-11-05T07:03:03.337Z,977.56
2022-11-05T07:04:03.479Z,977.48
2022-11-05T07:05:03.554Z,977.53
2022-11-05T07:06:03.551Z,977.36
2022-11-05T07:07:03.695Z,977.59
2022-11-05T07:08:03.699Z,977.59
2022-11-05T07:09:03.766Z,977.45
2022-11-05T07:10:03.887Z,977.47
2022-11-05T07:11:02.955Z,977.58
2022-11-05T07:12:03.024Z,977.61
2022-11-05T07:13:08.927Z,977.53
2022-11-05T07:14:03.049Z,977.69
2022-11-05T07:15:02.979Z,977.61
2022-11-05T07:16:03.082Z,977.77
2022-11-05T07:17:03.061Z,977.55
2022-11-05T07:18:03.016Z,977.71
2022-11-05T07:19:03.286Z,977.71
2022-11-05T07:20:03.064Z,977.60
2022-11-05T07:21:03.179Z,977.79
2022-11-05T07:22:03.176Z,977.76
2022-11-05T07:23:03.163Z,977.76
2022-11-05T07:24:03.209Z,977.70
2022-11-05T07:25:03.171Z,977.73
2022-11-05T07:26:03.254Z,977.90
2022-11-05T07:27:03.234Z,977.67
2022-11-05T07:28:03.223Z,977.90
2022-11-05T07:29:03.208Z,977.89
2022-11-05T07:30:03.158Z,977.72
2022-11-05T07:31:03.133Z,977.89
2022-11-05T07:32:03.194Z,977.86
2022-11-05T07:33:03.045Z,977.83
2022-11-05T07:34:03.186Z,977.72
2022-11-05T07:35:03.094Z,977.92
2022-11-05T07:36:03.147Z,977.80
2022-11-05T07:37:03.046Z,977.61
2022-11-05T07:38:03.147Z,977.74
2022-11-05T07:39:03.383Z,977.85
2022-11-05T07:40:03.236Z,977.85
2022-11-05T07:41:03.305Z,977.77
2022-11-05T07:42:03.438Z,977.85
2022-11-05T07:43:03.350Z,977.91
2022-11-05T07:44:03.328Z,977.85
2022-11-05T07:45:03.332Z,977.76
2022-11-05T07:46:03.211Z,977.76
2022-11-05T07:47:03.295Z,977.76
2022-11-05T07:48:03.378Z,977.84
2022-11-05T07:49:03.294Z,977.67
2022-11-05T07:50:03.378Z,977.78
2022-11-05T07:51:03.324Z,977.70
2022-11-05T07:52:03.413Z,977.81
2022-11-05T07:53:03.274Z,977.78
2022-11-05T07:54:03.165Z,977.72
2022-11-05T07:55:03.168Z,977.81
2022-11-05T07:56:03.201Z,977.89
2022-11-05T07:57:03.168Z,977.81
2022-11-05T07:58:03.172Z,977.78
2022-11-05T07:59:03.231Z,977.83
2022-11-05T08:00:03.276Z,977.95
2022-11-05T08:01:03.561Z,977.92
2022-11-05T08:02:04.203Z,977.89
2022-11-05T08:03:08.946Z,977.94
2022-11-05T08:04:03.640Z,977.91
2022-11-05T08:05:03.565Z,978.06
2022-11-05T08:06:03.551Z,977.86
2022-11-05T08:07:03.675Z,977.97
2022-11-05T08:08:03.735Z,977.91
2022-11-05T08:09:03.859Z,977.97
2022-11-05T08:10:02.961Z,978.08
2022-11-05T08:11:03.915Z,977.99
2022-11-05T08:12:03.743Z,978.05
2022-11-05T08:13:02.970Z,978.08
2022-11-05T08:14:03.111Z,978.13
2022-11-05T08:15:03.129Z,978.16
2022-11-05T08:16:03.172Z,978.10
2022-11-05T08:17:03.263Z,978.07
2022-11-05T08:18:03.092Z,978.21
2022-11-05T08:19:03.049Z,978.12
2022-11-05T08:20:03.066Z,978.15
2022-11-05T08:21:03.150Z,978.21
2022-11-05T08:22:03.060Z,978.21
2022-11-05T08:23:03.110Z,978.15
2022-11-05T08:24:03.083Z,978.18
2022-11-05T08:25:07.154Z,978.23
2022-11-05T08:26:03.074Z,978.20
2022-11-05T08:27:03.156Z,978.23
2022-11-05T08:28:03.280Z,978.32
2022-11-05T08:29:03.207Z,978.34
2022-11-05T08:30:03.380Z,978.29
2022-11-05T08:31:03.591Z,978.26
2022-11-05T08:32:03.317Z,978.34
2022-11-05T08:33:03.465Z,978.37
2022-11-05T08:34:03.550Z,978.40
2022-11-05T08:35:03.589Z,978.28
2022-11-05T08:36:03.748Z,978.39
2022-11-05T08:37:03.645Z,978.44
2022-11-05T08:38:03.667Z,978.36
2022-11-05T08:39:03.737Z,978.31
2022-11-05T08:40:03.822Z,978.39
2022-11-05T08:41:03.853Z,978.49
2022-11-05T08:42:02.882Z,978.42
2022-11-05T08:43:03.913Z,978.36
2022-11-05T08:44:02.988Z,978.55
2022-11-05T08:45:02.991Z,978.36
2022-11-05T08:46:02.926Z,978.49
2022-11-05T08:47:03.016Z,978.52
2022-11-05T08:48:03.070Z,978.54
2022-11-05T08:49:03.194Z,978.49
2022-11-05T08:50:03.172Z,978.63
2022-11-05T08:51:03.075Z,978.57
2022-11-05T08:52:03.068Z,978.57
2022-11-05T08:53:03.123Z,978.68
2022-11-05T08:54:03.010Z,978.74
2022-11-05T08:55:03.059Z,978.54
2022-11-05T08:56:03.047Z,978.65
2022-11-05T08:57:03.000Z,978.59
2022-11-05T08:58:03.076Z,978.51
2022-11-05T08:59:03.157Z,978.70
2022-11-05T09:00:03.225Z,978.67
2022-11-05T09:01:05.872Z,978.73
2022-11-05T09:02:03.437Z,978.56
2022-11-05T09:03:03.211Z,978.73
2022-11-05T09:04:03.276Z,978.56
2022-11-05T09:05:03.342Z,978.56
2022-11-05T09:06:03.295Z,978.64
2022-11-05T09:07:03.360Z,978.73
2022-11-05T09:08:03.450Z,978.70
2022-11-05T09:09:03.585Z,978.75
2022-11-05T09:10:03.458Z,978.78
2022-11-05T09:11:03.543Z,978.67
2022-11-05T09:12:13.190Z,978.84
2022-11-05T09:13:03.572Z,978.86
2022-11-05T09:14:03.500Z,978.83
2022-11-05T09:15:03.585Z,978.86
2022-11-05T09:16:03.629Z,978.81
2022-11-05T09:17:03.623Z,978.75
2022-11-05T09:18:03.638Z,978.83
2022-11-05T09:19:03.791Z,978.86
2022-11-05T09:20:03.729Z,978.77
2022-11-05T09:21:03.796Z,978.89
2022-11-05T09:22:04.029Z,978.89
2022-11-05T09:23:03.806Z,978.72
2022-11-05T09:24:03.748Z,978.83
2022-11-05T09:25:03.719Z,978.94
2022-11-05T09:26:03.840Z,979.05
2022-11-05T09:27:03.886Z,978.94
2022-11-05T09:28:02.900Z,978.94
2022-11-05T09:29:02.965Z,979.00
2022-11-05T09:30:02.935Z,978.83
2022-11-05T09:31:02.990Z,978.88
2022-11-05T09:32:03.023Z,979.05
2022-11-05T09:33:03.229Z,978.91
2022-11-05T09:34:03.099Z,978.97
2022-11-05T09:35:03.014Z,978.97
2022-11-05T09:36:03.035Z,979.05
2022-11-05T09:37:03.082Z,978.91
2022-11-05T09:38:03.066Z,978.99
2022-11-05T09:39:02.996Z,978.96
2022-11-05T09:40:03.081Z,978.99
2022-11-05T09:41:02.975Z,979.05
2022-11-05T09:42:03.069Z,979.13
2022-11-05T09:43:03.039Z,979.24
2022-11-05T09:44:03.169Z,979.01
2022-11-05T09:45:03.170Z,979.16
2022-11-05T09:46:03.207Z,979.13
2022-11-05T09:47:03.331Z,979.12
2022-11-05T09:48:03.210Z,979.12
2022-11-05T09:49:03.212Z,979.07
2022-11-05T09:50:03.378Z,979.15
2022-11-05T09:51:03.346Z,979.21
2022-11-05T09:52:03.270Z,979.24
2022-11-05T09:53:03.415Z,979.21
2022-11-05T09:54:03.455Z,979.18
2022-11-05T09:55:03.474Z,979.32
2022-11-05T09:56:03.589Z,979.21
2022-11-05T09:57:03.530Z,979.29
2022-11-05T09:58:03.566Z,979.26
2022-11-05T09:59:03.639Z,979.35
2022-11-05T10:00:03.738Z,979.23
2022-11-05T10:01:03.886Z,979.40
2022-11-05T10:02:04.276Z,979.26
2022-11-05T10:03:03.662Z,979.26
2022-11-05T10:04:03.662Z,979.37
2022-11-05T10:05:10.399Z,979.37
2022-11-05T10:06:03.774Z,979.37
2022-11-05T10:07:03.952Z,979.34
2022-11-05T10:08:04.402Z,979.34
2022-11-05T10:09:03.817Z,979.39
2022-11-05T10:10:03.813Z,979.28
2022-11-05T10:11:03.835Z,979.36
2022-11-05T10:12:03.836Z,979.36
2022-11-05T10:13:03.879Z,979.39
2022-11-05T10:14:03.007Z,979.30
2022-11-05T10:15:02.968Z,979.38
2022-11-05T10:16:03.047Z,979.32
2022-11-05T10:17:03.225Z,979.35
2022-11-05T10:18:03.271Z,979.49
2022-11-05T10:19:03.281Z,979.40
2022-11-05T10:20:03.272Z,979.39
2022-11-05T10:21:03.319Z,979.39
2022-11-05T10:22:07.640Z,979.47
2022-11-05T10:23:03.535Z,979.36
2022-11-05T10:24:03.491Z,979.35
2022-11-05T10:25:03.483Z,979.41
2022-11-05T10:26:04.027Z,979.60
2022-11-05T10:27:03.510Z,979.46
2022-11-05T10:28:03.466Z,979.57
2022-11-05T10:29:03.638Z,979.54
2022-11-05T10:30:03.549Z,979.74
2022-11-05T10:31:03.491Z,979.54
2022-11-05T10:32:03.560Z,979.62
2022-11-05T10:33:03.633Z,979.71
2022-11-05T10:34:03.670Z,979.65
2022-11-05T10:35:03.866Z,979.79
2022-11-05T10:36:03.864Z,979.79
2022-11-05T10:37:03.803Z,979.68
2022-11-05T10:38:03.770Z,979.74
2022-11-05T10:39:03.862Z,979.87
2022-11-05T10:40:03.807Z,979.76
2022-11-05T10:41:02.904Z,979.79
2022-11-05T10:42:03.072Z,979.85
2022-11-05T10:43:03.008Z,979.85
2022-11-05T10:44:03.083Z,979.79
2022-11-05T10:45:03.038Z,979.74
2022-11-05T10:46:03.117Z,979.85
2022-11-05T10:47:03.231Z,979.99
2022-11-05T10:48:03.321Z,980.02
2022-11-05T10:49:03.256Z,980.07
2022-11-05T10:50:03.324Z,979.93
2022-11-05T10:51:03.219Z,980.10
2022-11-05T10:52:03.191Z,979.91
2022-11-05T10:53:03.315Z,979.91
2022-11-05T10:54:03.435Z,980.05
2022-11-05T10:55:03.490Z,979.99
2022-11-05T10:56:03.507Z,979.86
2022-11-05T10:57:03.560Z,979.88
2022-11-05T10:58:03.567Z,979.91
2022-11-05T10:59:12.121Z,979.97
2022-11-05T11:00:03.569Z,979.91
2022-11-05T11:01:03.891Z,979.91
2022-11-05T11:02:03.958Z,979.94
2022-11-05T11:03:03.739Z,979.97
2022-11-05T11:04:03.810Z,980.08
2022-11-05T11:05:03.813Z,979.84
2022-11-05T11:06:03.810Z,980.00
2022-11-05T11:07:02.962Z,979.86
2022-11-05T11:08:03.902Z,980.17
2022-11-05T11:09:03.824Z,979.94
2022-11-05T11:10:03.902Z,980.00
2022-11-05T11:11:03.779Z,980.03
2022-11-05T11:12:03.771Z,980.08
2022-11-05T11:13:03.826Z,980.03
2022-11-05T11:14:02.937Z,980.06
2022-11-05T11:15:02.979Z,980.06
2022-11-05T11:16:03.164Z,979.94
2022-11-05T11:17:03.192Z,980.11
2022-11-05T11:18:03.201Z,980.08
2022-11-05T11:19:03.273Z,980.02
2022-11-05T11:20:03.278Z,980.08
2022-11-05T11:21:03.247Z,980.02
2022-11-05T11:22:03.264Z,980.02
2022-11-05T11:23:03.382Z,980.02
2022-11-05T11:24:03.382Z,979.97
2022-11-05T11:25:03.484Z,979.97
2022-11-05T11:26:03.416Z,980.05
2022-11-05T11:27:03.321Z,979.97
2022-11-05T11:28:03.374Z,980.00
2022-11-05T11:29:03.294Z,980.08
2022-11-05T11:30:03.421Z,979.97
2022-11-05T11:31:03.451Z,979.97
2022-11-05T11:32:03.455Z,980.05
2022-11-05T11:33:03.509Z,980.14
2022-11-05T11:34:03.457Z,980.11
2022-11-05T11:35:03.424Z,979.94
2022-11-05T11:36:03.351Z,979.97
2022-11-05T11:37:03.386Z,980.08
2022-11-05T11:38:03.417Z,980.02
2022-11-05T11:39:03.397Z,980.02
2022-11-05T11:40:03.465Z,980.05
2022-11-05T11:41:03.749Z,980.11
2022-11-05T11:42:03.753Z,980.08
2022-11-05T11:43:03.702Z,979.96
2022-11-05T11:44:03.783Z,979.99
2022-11-05T11:45:03.800Z,979.99
2022-11-05T11:46:12.567Z,980.05
2022-11-05T11:47:03.720Z,979.99
2022-11-05T11:48:03.746Z,980.16
2022-11-05T11:49:03.854Z,979.99
2022-11-05T11:50:03.806Z,980.07
2022-11-05T11:51:03.846Z,980.07
2022-11-05T11:52:03.010Z,980.07
2022-11-05T11:53:02.959Z,980.16
2022-11-05T11:54:03.066Z,980.07
2022-11-05T11:55:03.080Z,980.04
2022-11-05T11:56:03.094Z,980.04
2022-11-05T11:57:03.090Z,980.07
2022-11-05T11:58:03.074Z,980.02
2022-11-05T11:59:03.082Z,980.07
2022-11-05T12:00:09.926Z,980.13
2022-11-05T12:01:03.166Z,980.07
2022-11-05T12:02:03.337Z,980.13
2022-11-05T12:03:03.267Z,980.10
2022-11-05T12:04:03.105Z,980.26
2022-11-05T12:05:03.174Z,980.07
2022-11-05T12:06:03.152Z,979.99
2022-11-05T12:07:03.002Z,980.21
2022-11-05T12:08:02.980Z,980.10
2022-11-05T12:09:07.149Z,980.04
2022-11-05T12:10:03.148Z,980.13
2022-11-05T12:11:03.108Z,980.16
2022-11-05T12:12:03.164Z,980.21
2022-11-05T12:13:03.140Z,980.21
2022-11-05T12:14:03.381Z,980.13
2022-11-05T12:15:03.563Z,980.13
2022-11-05T12:16:03.503Z,980.10
2022-11-05T12:17:03.613Z,980.11
2022-11-05T12:18:03.836Z,980.16
2022-11-05T12:19:03.535Z,980.13
2022-11-05T12:20:03.605Z,980.16
2022-11-05T12:21:03.725Z,980.11
2022-11-05T12:22:03.783Z,980.05
2022-11-05T12:23:03.798Z,980.08
2022-11-05T12:24:03.800Z,980.24
2022-11-05T12:25:03.865Z,980.21
2022-11-05T12:26:03.723Z,980.21
2022-11-05T12:27:03.738Z,980.27
2022-11-05T12:28:03.753Z,980.21